createdAt,value
2023-02-22T00:03:57.977Z,3.42
2023-02-22T00:06:32.715Z,3.37
2023-02-22T00:09:11.675Z,3.35
2023-02-22T00:12:05.259Z,3.32
2023-02-22T00:14:35.920Z,3.34
2023-02-22T00:17:23.493Z,3.32
2023-02-22T00:20:18.832Z,3.30
2023-02-22T00:37:44.309Z,3.08
2023-02-22T00:43:44.058Z,3.04
2023-02-22T00:49:45.419Z,3.06
2023-02-22T01:03:35.339Z,2.97
2023-02-22T01:06:19.756Z,2.92
2023-02-22T01:20:21.403Z,3.18
2023-02-22T01:23:34.332Z,3.15
2023-02-22T01:39:46.007Z,2.92
2023-02-22T01:42:53.605Z,2.87
2023-02-22T01:45:42.437Z,2.81
2023-02-22T01:48:29.389Z,2.78
2023-02-22T01:51:23.891Z,2.80
2023-02-22T01:54:17.212Z,2.81
2023-02-22T02:00:18.729Z,2.77
2023-02-22T02:03:10.926Z,2.73
2023-02-22T02:05:44.956Z,2.65
2023-02-22T02:09:01.474Z,2.63
2023-02-22T02:11:52.588Z,2.62
2023-02-22T02:14:25.188Z,2.65
2023-02-22T02:18:50.631Z,2.80
2023-02-22T02:29:04.366Z,2.72
2023-02-22T02:32:16.246Z,2.68
2023-02-22T02:35:00.220Z,2.64
2023-02-22T02:37:42.619Z,2.60
2023-02-22T02:40:20.957Z,2.56
2023-02-22T02:43:27.899Z,2.55
2023-02-22T02:46:32.644Z,2.51
2023-02-22T02:49:41.497Z,2.49
2023-02-22T02:55:24.394Z,2.13
2023-02-22T02:57:54.117Z,2.03
2023-02-22T03:00:28.743Z,1.98
2023-02-22T03:03:21.858Z,1.96
2023-02-22T03:09:48.305Z,2.03
2023-02-22T03:12:33.339Z,1.99
2023-02-22T03:22:14.864Z,1.89
2023-02-22T03:25:00.887Z,1.86
2023-02-22T03:31:39.890Z,1.68
2023-02-22T03:34:42.334Z,1.66
2023-02-22T03:41:05.932Z,1.54
2023-02-22T03:44:10.798Z,1.50
2023-02-22T03:46:55.569Z,1.45
2023-02-22T03:50:12.282Z,1.32
2023-02-22T04:01:17.910Z,1.19
2023-02-22T04:03:55.665Z,1.22
2023-02-22T04:06:26.595Z,1.22
2023-02-22T04:08:56.632Z,1.25
2023-02-22T04:11:33.967Z,1.29
2023-02-22T04:14:35.466Z,1.29
2023-02-22T04:17:24.802Z,1.18
2023-02-22T04:20:27.373Z,1.12
2023-02-22T04:23:08.804Z,1.09
2023-02-22T04:25:43.311Z,1.12
2023-02-22T04:28:29.675Z,1.16
2023-02-22T04:31:19.844Z,1.25
2023-02-22T04:33:53.919Z,1.33
2023-02-22T04:39:51.811Z,1.46
2023-02-22T04:42:33.369Z,1.50
2023-02-22T04:45:26.762Z,1.53
2023-02-22T04:48:40.757Z,1.50
2023-02-22T04:54:26.759Z,1.47
2023-02-22T04:57:01.080Z,1.47
2023-02-22T04:59:54.829Z,1.46
2023-02-22T05:02:43.661Z,1.48
2023-02-22T05:25:14.964Z,1.47
2023-02-22T05:28:25.848Z,1.44
2023-02-22T05:31:02.539Z,1.43
2023-02-22T05:33:36.111Z,1.43
2023-02-22T05:36:05.312Z,1.50
2023-02-22T05:38:38.066Z,1.56
2023-02-22T05:41:17.112Z,1.57
2023-02-22T05:46:40.638Z,1.64
2023-02-22T14:35:50.356Z,0.42
2023-02-22T14:39:02.416Z,0.37
2023-02-22T14:42:46.709Z,0.32
2023-02-22T23:08:00.245Z,-4.13
2023-02-22T23:19:26.715Z,-4.11
2023-02-22T23:22:00.282Z,-4.09
2023-02-22T23:24:49.871Z,-4.10
2023-02-22T23:27:25.145Z,-4.12
2023-02-22T23:30:29.147Z,-4.13
2023-02-22T23:33:05.116Z,-4.14
2023-02-22T23:35:38.171Z,-4.14
2023-02-22T23:38:11.311Z,-4.13
2023-02-22T23:43:54.265Z,-4.10
2023-02-22T23:46:23.286Z,-4.04
2023-02-22T23:49:02.573Z,-4.00
2023-02-22T23:51:40.074Z,-3.90
2023-02-22T23:54:36.758Z,-3.83
2023-02-22T23:57:24.920Z,-3.78
